sensor_id;sensor_type;location;lat;lon;timestamp;P1;durP1;ratioP1;P2;durP2;ratioP2
6499;SDS011;3283;52.330;9.772;2023-03-14T05:03:05;26.88;;;14.77;;
6499;SDS011;3283;52.330;9.772;2023-03-14T05:05:30;17.50;;;14.23;;
6499;SDS011;3283;52.330;9.772;2023-03-14T05:07:56;30.17;;;23.60;;
6499;SDS011;3283;52.330;9.772;2023-03-14T05:10:21;17.30;;;14.63;;
6499;SDS011;3283;52.330;9.772;2023-03-14T05:12:46;16.30;;;12.40;;
6499;SDS011;3283;52.330;9.772;2023-03-14T05:15:12;19.20;;;13.70;;
6499;SDS011;3283;52.330;9.772;2023-03-14T05:17:37;19.33;;;11.20;;
6499;SDS011;3283;52.330;9.772;2023-03-14T05:20:03;23.70;;;15.67;;
6499;SDS011;3283;52.330;9.772;2023-03-14T05:22:37;20.93;;;15.80;;
6499;SDS011;3283;52.330;9.772;2023-03-14T05:25:03;18.47;;;13.00;;
6499;SDS011;3283;52.330;9.772;2023-03-14T05:27:29;26.97;;;14.57;;
6499;SDS011;3283;52.330;9.772;2023-03-14T05:29:54;16.23;;;13.10;;
6499;SDS011;3283;52.330;9.772;2023-03-14T05:32:20;22.90;;;17.03;;
6499;SDS011;3283;52.330;9.772;2023-03-14T05:34:45;24.27;;;19.27;;
6499;SDS011;3283;52.330;9.772;2023-03-14T05:37:11;17.40;;;9.00;;
6499;SDS011;3283;52.330;9.772;2023-03-14T05:39:36;16.10;;;10.60;;
6499;SDS011;3283;52.330;9.772;2023-03-14T05:42:01;19.93;;;16.00;;
6499;SDS011;3283;52.330;9.772;2023-03-14T05:44:27;20.47;;;18.10;;
6499;SDS011;3283;52.330;9.772;2023-03-14T05:46:52;31.60;;;28.57;;
6499;SDS011;3283;52.330;9.772;2023-03-14T05:49:18;43.97;;;39.73;;
6499;SDS011;3283;52.330;9.772;2023-03-14T05:51:43;35.07;;;29.70;;
6499;SDS011;3283;52.330;9.772;2023-03-14T05:54:08;23.20;;;20.57;;
6499;SDS011;3283;52.330;9.772;2023-03-14T05:56:34;26.43;;;23.60;;
6499;SDS011;3283;52.330;9.772;2023-03-14T05:58:59;28.97;;;26.30;;
6499;SDS011;3283;52.330;9.772;2023-03-14T06:01:27;20.13;;;15.73;;
6499;SDS011;3283;52.330;9.772;2023-03-14T06:03:52;38.30;;;24.37;;
6499;SDS011;3283;52.330;9.772;2023-03-14T06:06:18;16.40;;;12.17;;
6499;SDS011;3283;52.330;9.772;2023-03-14T06:08:43;29.57;;;27.07;;
6499;SDS011;3283;52.330;9.772;2023-03-14T06:11:09;52.17;;;46.90;;
6499;SDS011;3283;52.330;9.772;2023-03-14T06:13:34;25.97;;;23.43;;
6499;SDS011;3283;52.330;9.772;2023-03-14T06:16:00;19.10;;;9.20;;
6499;SDS011;3283;52.330;9.772;2023-03-14T06:18:25;12.77;;;7.40;;
6499;SDS011;3283;52.330;9.772;2023-03-14T06:20:53;23.33;;;12.03;;
6499;SDS011;3283;52.330;9.772;2023-03-14T06:23:19;20.20;;;10.90;;
6499;SDS011;3283;52.330;9.772;2023-03-14T06:25:44;16.20;;;9.90;;
6499;SDS011;3283;52.330;9.772;2023-03-14T06:28:10;15.23;;;9.90;;
6499;SDS011;3283;52.330;9.772;2023-03-14T06:30:35;18.80;;;13.27;;
6499;SDS011;3283;52.330;9.772;2023-03-14T06:33:01;18.17;;;10.87;;
6499;SDS011;3283;52.330;9.772;2023-03-14T06:35:26;13.00;;;6.63;;
6499;SDS011;3283;52.330;9.772;2023-03-14T06:37:51;26.40;;;9.60;;
6499;SDS011;3283;52.330;9.772;2023-03-14T06:40:17;35.40;;;14.57;;
6499;SDS011;3283;52.330;9.772;2023-03-14T06:42:43;15.20;;;6.93;;
6499;SDS011;3283;52.330;9.772;2023-03-14T06:45:09;14.30;;;7.50;;
6499;SDS011;3283;52.330;9.772;2023-03-14T06:47:35;15.63;;;8.37;;
6499;SDS011;3283;52.330;9.772;2023-03-14T06:50:00;16.80;;;8.03;;
6499;SDS011;3283;52.330;9.772;2023-03-14T06:52:26;19.10;;;14.97;;
6499;SDS011;3283;52.330;9.772;2023-03-14T06:54:51;23.43;;;16.27;;
6499;SDS011;3283;52.330;9.772;2023-03-14T06:57:17;18.17;;;15.07;;
6499;SDS011;3283;52.330;9.772;2023-03-14T06:59:42;28.53;;;26.00;;
6499;SDS011;3283;52.330;9.772;2023-03-14T07:02:09;43.80;;;39.83;;
6499;SDS011;3283;52.330;9.772;2023-03-14T07:04:37;38.13;;;34.80;;
6499;SDS011;3283;52.330;9.772;2023-03-14T07:07:02;32.10;;;28.70;;
6499;SDS011;3283;52.330;9.772;2023-03-14T07:09:27;54.70;;;49.60;;
6499;SDS011;3283;52.330;9.772;2023-03-14T07:11:53;32.00;;;25.50;;
6499;SDS011;3283;52.330;9.772;2023-03-14T07:14:18;36.03;;;32.50;;
6499;SDS011;3283;52.330;9.772;2023-03-14T07:16:43;20.97;;;18.90;;
6499;SDS011;3283;52.330;9.772;2023-03-14T07:19:10;17.50;;;15.80;;
6499;SDS011;3283;52.330;9.772;2023-03-14T07:21:35;22.10;;;17.87;;
6499;SDS011;3283;52.330;9.772;2023-03-14T07:24:01;31.07;;;19.80;;
6499;SDS011;3283;52.330;9.772;2023-03-14T07:26:26;14.53;;;10.50;;
6499;SDS011;3283;52.330;9.772;2023-03-14T07:28:52;22.20;;;13.50;;
6499;SDS011;3283;52.330;9.772;2023-03-14T07:31:17;23.40;;;12.57;;
6499;SDS011;3283;52.330;9.772;2023-03-14T07:33:43;30.47;;;26.43;;
6499;SDS011;3283;52.330;9.772;2023-03-14T07:36:08;27.73;;;25.13;;
6499;SDS011;3283;52.330;9.772;2023-03-14T07:38:34;29.83;;;26.70;;
6499;SDS011;3283;52.330;9.772;2023-03-14T07:41:00;50.70;;;45.27;;
6499;SDS011;3283;52.330;9.772;2023-03-14T07:43:26;42.47;;;38.50;;
6499;SDS011;3283;52.330;9.772;2023-03-14T07:45:51;40.27;;;36.00;;
6499;SDS011;3283;52.330;9.772;2023-03-14T07:48:17;39.90;;;36.87;;
6499;SDS011;3283;52.330;9.772;2023-03-14T07:50:43;45.20;;;41.67;;
6499;SDS011;3283;52.330;9.772;2023-03-14T07:53:09;59.40;;;53.97;;
6499;SDS011;3283;52.330;9.772;2023-03-14T07:55:34;69.83;;;62.77;;
6499;SDS011;3283;52.330;9.772;2023-03-14T07:58:00;69.80;;;62.47;;
6499;SDS011;3283;52.330;9.772;2023-03-14T08:00:25;71.77;;;64.97;;
6499;SDS011;3283;52.330;9.772;2023-03-14T08:02:51;45.03;;;37.70;;
6499;SDS011;3283;52.330;9.772;2023-03-14T08:05:16;48.93;;;44.27;;
6499;SDS011;3283;52.330;9.772;2023-03-14T08:07:41;52.83;;;47.77;;
6499;SDS011;3283;52.330;9.772;2023-03-14T08:10:07;31.20;;;26.90;;
6499;SDS011;3283;52.330;9.772;2023-03-14T08:12:33;33.77;;;30.60;;
6499;SDS011;3283;52.330;9.772;2023-03-14T08:14:59;55.70;;;50.13;;
6499;SDS011;3283;52.330;9.772;2023-03-14T08:17:24;28.67;;;22.23;;
6499;SDS011;3283;52.330;9.772;2023-03-14T08:19:50;21.80;;;19.00;;
6499;SDS011;3283;52.330;9.772;2023-03-14T08:22:15;28.40;;;25.37;;
6499;SDS011;3283;52.330;9.772;2023-03-14T08:24:40;20.20;;;18.10;;
6499;SDS011;3283;52.330;9.772;2023-03-14T08:27:06;24.47;;;17.57;;
6499;SDS011;3283;52.330;9.772;2023-03-14T08:29:31;28.30;;;24.00;;
6499;SDS011;3283;52.330;9.772;2023-03-14T08:31:56;24.53;;;20.10;;
6499;SDS011;3283;52.330;9.772;2023-03-14T08:34:22;25.90;;;23.00;;
6499;SDS011;3283;52.330;9.772;2023-03-14T08:36:47;32.43;;;20.67;;
6499;SDS011;3283;52.330;9.772;2023-03-14T08:39:12;19.10;;;17.10;;
6499;SDS011;3283;52.330;9.772;2023-03-14T08:41:38;22.27;;;15.57;;
6499;SDS011;3283;52.330;9.772;2023-03-14T08:44:06;33.97;;;21.63;;
6499;SDS011;3283;52.330;9.772;2023-03-14T08:46:32;21.47;;;16.80;;
6499;SDS011;3283;52.330;9.772;2023-03-14T08:48:58;26.57;;;23.80;;
6499;SDS011;3283;52.330;9.772;2023-03-14T08:51:23;31.87;;;23.03;;
6499;SDS011;3283;52.330;9.772;2023-03-14T08:53:49;45.63;;;31.03;;
6499;SDS011;3283;52.330;9.772;2023-03-14T08:56:15;29.20;;;26.30;;
6499;SDS011;3283;52.330;9.772;2023-03-14T08:58:40;23.83;;;14.17;;
6499;SDS011;3283;52.330;9.772;2023-03-14T09:01:08;29.20;;;26.17;;
6499;SDS011;3283;52.330;9.772;2023-03-14T09:03:35;40.33;;;36.60;;
6499;SDS011;3283;52.330;9.772;2023-03-14T09:06:01;43.67;;;39.30;;
6499;SDS011;3283;52.330;9.772;2023-03-14T09:08:31;45.70;;;41.47;;
6499;SDS011;3283;52.330;9.772;2023-03-14T09:10:56;42.60;;;38.50;;
6499;SDS011;3283;52.330;9.772;2023-03-14T09:13:22;59.83;;;54.03;;
6499;SDS011;3283;52.330;9.772;2023-03-14T09:15:54;44.87;;;40.50;;
6499;SDS011;3283;52.330;9.772;2023-03-14T09:18:20;49.83;;;44.87;;
6499;SDS011;3283;52.330;9.772;2023-03-14T09:20:46;50.17;;;44.97;;
6499;SDS011;3283;52.330;9.772;2023-03-14T09:23:12;35.47;;;31.97;;
6499;SDS011;3283;52.330;9.772;2023-03-14T09:25:37;42.73;;;38.63;;
6499;SDS011;3283;52.330;9.772;2023-03-14T09:28:03;47.37;;;43.10;;
6499;SDS011;3283;52.330;9.772;2023-03-14T09:30:29;62.80;;;56.83;;
6499;SDS011;3283;52.330;9.772;2023-03-14T09:32:54;58.23;;;50.47;;
6499;SDS011;3283;52.330;9.772;2023-03-14T09:35:20;66.80;;;60.50;;
6499;SDS011;3283;52.330;9.772;2023-03-14T09:37:45;43.77;;;39.47;;
6499;SDS011;3283;52.330;9.772;2023-03-14T09:40:12;45.97;;;42.00;;
6499;SDS011;3283;52.330;9.772;2023-03-14T09:42:39;32.07;;;29.07;;
6499;SDS011;3283;52.330;9.772;2023-03-14T09:45:28;54.77;;;49.87;;
6499;SDS011;3283;52.330;9.772;2023-03-14T09:48:02;61.23;;;54.57;;
6499;SDS011;3283;52.330;9.772;2023-03-14T09:53:28;51.53;;;47.43;;
6499;SDS011;3283;52.330;9.772;2023-03-14T09:56:04;50.33;;;45.77;;
6499;SDS011;3283;52.330;9.772;2023-03-14T09:58:35;38.23;;;35.03;;
6499;SDS011;3283;52.330;9.772;2023-03-14T10:01:02;39.10;;;33.47;;
6499;SDS011;3283;52.330;9.772;2023-03-14T10:03:34;25.13;;;22.40;;
6499;SDS011;3283;52.330;9.772;2023-03-14T10:06:00;39.63;;;35.67;;
6499;SDS011;3283;52.330;9.772;2023-03-14T10:08:26;26.40;;;23.60;;
6499;SDS011;3283;52.330;9.772;2023-03-14T10:10:51;31.40;;;27.93;;
6499;SDS011;3283;52.330;9.772;2023-03-14T10:13:23;40.50;;;32.27;;
6499;SDS011;3283;52.330;9.772;2023-03-14T10:15:54;50.37;;;46.17;;
6499;SDS011;3283;52.330;9.772;2023-03-14T10:18:24;52.10;;;47.63;;
6499;SDS011;3283;52.330;9.772;2023-03-14T10:20:52;67.20;;;61.20;;
6499;SDS011;3283;52.330;9.772;2023-03-14T10:23:52;77.17;;;65.67;;
6499;SDS011;3283;52.330;9.772;2023-03-14T10:26:18;68.70;;;63.17;;
6499;SDS011;3283;52.330;9.772;2023-03-14T10:28:53;71.00;;;65.17;;
6499;SDS011;3283;52.330;9.772;2023-03-14T10:31:26;54.73;;;50.10;;
6499;SDS011;3283;52.330;9.772;2023-03-14T10:33:59;82.53;;;62.23;;
6499;SDS011;3283;52.330;9.772;2023-03-14T10:36:29;55.07;;;50.13;;
6499;SDS011;3283;52.330;9.772;2023-03-14T10:38:57;51.70;;;47.03;;
6499;SDS011;3283;52.330;9.772;2023-03-14T10:41:48;46.07;;;41.93;;
6499;SDS011;3283;52.330;9.772;2023-03-14T10:44:18;46.63;;;42.67;;
6499;SDS011;3283;52.330;9.772;2023-03-14T10:46:47;45.27;;;41.67;;
6499;SDS011;3283;52.330;9.772;2023-03-14T10:49:43;55.07;;;50.33;;
6499;SDS011;3283;52.330;9.772;2023-03-14T10:52:15;63.93;;;58.20;;
6499;SDS011;3283;52.330;9.772;2023-03-14T10:54:41;46.90;;;42.97;;
6499;SDS011;3283;52.330;9.772;2023-03-14T10:57:10;67.67;;;62.17;;
6499;SDS011;3283;52.330;9.772;2023-03-14T10:59:37;67.47;;;61.40;;
6499;SDS011;3283;52.330;9.772;2023-03-14T11:07:35;57.43;;;52.87;;
6499;SDS011;3283;52.330;9.772;2023-03-14T11:10:08;59.10;;;54.00;;
6499;SDS011;3283;52.330;9.772;2023-03-14T11:32:21;37.60;;;34.07;;
6499;SDS011;3283;52.330;9.772;2023-03-14T11:34:54;26.93;;;23.33;;
6499;SDS011;3283;52.330;9.772;2023-03-14T11:37:22;28.80;;;25.83;;
6499;SDS011;3283;52.330;9.772;2023-03-14T11:40:08;26.23;;;23.30;;
6499;SDS011;3283;52.330;9.772;2023-03-14T11:42:44;23.53;;;17.93;;
6499;SDS011;3283;52.330;9.772;2023-03-14T11:45:16;24.73;;;18.23;;
6499;SDS011;3283;52.330;9.772;2023-03-14T11:48:10;40.70;;;25.20;;
6499;SDS011;3283;52.330;9.772;2023-03-14T11:50:38;32.23;;;26.40;;
6499;SDS011;3283;52.330;9.772;2023-03-14T11:53:11;25.70;;;21.60;;
6499;SDS011;3283;52.330;9.772;2023-03-14T11:55:42;24.93;;;19.07;;
6499;SDS011;3283;52.330;9.772;2023-03-14T12:00:49;29.17;;;25.50;;
6499;SDS011;3283;52.330;9.772;2023-03-14T12:03:26;22.07;;;19.77;;
6499;SDS011;3283;52.330;9.772;2023-03-14T12:06:09;20.73;;;18.53;;
6499;SDS011;3283;52.330;9.772;2023-03-14T12:08:56;24.47;;;18.60;;
6499;SDS011;3283;52.330;9.772;2023-03-14T12:11:34;18.30;;;9.90;;
6499;SDS011;3283;52.330;9.772;2023-03-14T12:16:54;17.37;;;7.63;;
6499;SDS011;3283;52.330;9.772;2023-03-14T12:24:19;24.40;;;9.93;;
6499;SDS011;3283;52.330;9.772;2023-03-14T12:26:54;22.53;;;12.03;;
6499;SDS011;3283;52.330;9.772;2023-03-14T12:29:21;13.80;;;7.53;;
6499;SDS011;3283;52.330;9.772;2023-03-14T12:31:47;26.67;;;12.43;;
6499;SDS011;3283;52.330;9.772;2023-03-14T12:34:39;15.80;;;11.30;;
6499;SDS011;3283;52.330;9.772;2023-03-14T12:39:45;19.77;;;10.27;;
6499;SDS011;3283;52.330;9.772;2023-03-14T12:50:15;30.63;;;17.60;;
6499;SDS011;3283;52.330;9.772;2023-03-14T12:55:21;27.73;;;21.50;;
6499;SDS011;3283;52.330;9.772;2023-03-14T13:00:21;33.37;;;26.70;;
6499;SDS011;3283;52.330;9.772;2023-03-14T13:02:55;29.57;;;25.13;;
6499;SDS011;3283;52.330;9.772;2023-03-14T13:05:27;20.77;;;9.87;;
6499;SDS011;3283;52.330;9.772;2023-03-14T13:10:20;32.27;;;27.47;;
6499;SDS011;3283;52.330;9.772;2023-03-14T13:15:40;34.90;;;28.23;;
6499;SDS011;3283;52.330;9.772;2023-03-14T13:18:15;43.07;;;29.00;;
6499;SDS011;3283;52.330;9.772;2023-03-14T13:21:18;42.73;;;25.30;;
6499;SDS011;3283;52.330;9.772;2023-03-14T13:23:55;34.13;;;24.77;;
6499;SDS011;3283;52.330;9.772;2023-03-14T13:26:24;47.80;;;34.07;;
6499;SDS011;3283;52.330;9.772;2023-03-14T13:28:57;50.93;;;36.33;;
6499;SDS011;3283;52.330;9.772;2023-03-14T13:31:24;49.83;;;36.80;;
6499;SDS011;3283;52.330;9.772;2023-03-14T13:34:01;71.33;;;37.17;;
6499;SDS011;3283;52.330;9.772;2023-03-14T13:36:29;57.43;;;39.00;;
6499;SDS011;3283;52.330;9.772;2023-03-14T13:38:58;47.37;;;35.10;;
6499;SDS011;3283;52.330;9.772;2023-03-14T13:41:26;46.20;;;34.27;;
6499;SDS011;3283;52.330;9.772;2023-03-14T13:43:52;67.13;;;29.20;;
6499;SDS011;3283;52.330;9.772;2023-03-14T13:46:25;34.10;;;26.00;;
6499;SDS011;3283;52.330;9.772;2023-03-14T13:49:02;42.23;;;31.20;;
6499;SDS011;3283;52.330;9.772;2023-03-14T13:51:29;35.17;;;25.07;;
6499;SDS011;3283;52.330;9.772;2023-03-14T13:54:00;53.00;;;32.07;;
6499;SDS011;3283;52.330;9.772;2023-03-14T13:56:27;28.80;;;24.60;;
6499;SDS011;3283;52.330;9.772;2023-03-14T13:58:54;44.93;;;31.77;;
6499;SDS011;3283;52.330;9.772;2023-03-14T14:03:48;35.37;;;24.83;;
6499;SDS011;3283;52.330;9.772;2023-03-14T14:06:37;34.20;;;15.67;;
6499;SDS011;3283;52.330;9.772;2023-03-14T14:12:06;26.37;;;15.40;;
6499;SDS011;3283;52.330;9.772;2023-03-14T14:17:13;21.10;;;15.37;;
6499;SDS011;3283;52.330;9.772;2023-03-14T14:19:43;35.97;;;20.27;;
6499;SDS011;3283;52.330;9.772;2023-03-14T14:22:10;43.27;;;25.17;;
6499;SDS011;3283;52.330;9.772;2023-03-14T14:24:36;38.10;;;22.17;;
6499;SDS011;3283;52.330;9.772;2023-03-14T14:27:19;38.20;;;21.90;;
6499;SDS011;3283;52.330;9.772;2023-03-14T14:30:01;40.80;;;26.33;;
6499;SDS011;3283;52.330;9.772;2023-03-14T14:32:37;36.03;;;26.47;;
6499;SDS011;3283;52.330;9.772;2023-03-14T14:35:04;28.67;;;18.00;;
6499;SDS011;3283;52.330;9.772;2023-03-14T14:39:58;30.13;;;22.93;;
6499;SDS011;3283;52.330;9.772;2023-03-14T14:42:27;32.50;;;21.80;;
6499;SDS011;3283;52.330;9.772;2023-03-14T14:44:56;35.50;;;24.77;;
6499;SDS011;3283;52.330;9.772;2023-03-14T14:47:23;71.03;;;41.10;;
6499;SDS011;3283;52.330;9.772;2023-03-14T14:49:51;60.77;;;38.77;;
6499;SDS011;3283;52.330;9.772;2023-03-14T14:52:30;49.23;;;37.27;;
6499;SDS011;3283;52.330;9.772;2023-03-14T14:54:59;69.73;;;43.93;;
6499;SDS011;3283;52.330;9.772;2023-03-14T14:57:33;65.07;;;41.30;;
6499;SDS011;3283;52.330;9.772;2023-03-14T15:00:08;40.73;;;33.90;;
6499;SDS011;3283;52.330;9.772;2023-03-14T15:02:45;58.30;;;41.90;;
6499;SDS011;3283;52.330;9.772;2023-03-14T15:05:45;58.00;;;42.67;;
6499;SDS011;3283;52.330;9.772;2023-03-14T15:08:08;68.03;;;45.97;;
6499;SDS011;3283;52.330;9.772;2023-03-14T15:10:34;61.90;;;47.60;;
6499;SDS011;3283;52.330;9.772;2023-03-14T15:13:00;53.93;;;37.50;;
6499;SDS011;3283;52.330;9.772;2023-03-14T15:15:25;38.30;;;31.70;;
6499;SDS011;3283;52.330;9.772;2023-03-14T15:17:51;67.30;;;46.13;;
6499;SDS011;3283;52.330;9.772;2023-03-14T15:20:16;71.27;;;49.17;;
6499;SDS011;3283;52.330;9.772;2023-03-14T15:22:43;54.47;;;39.20;;
6499;SDS011;3283;52.330;9.772;2023-03-14T15:25:09;57.43;;;36.77;;
6499;SDS011;3283;52.330;9.772;2023-03-14T15:27:35;36.17;;;32.40;;
6499;SDS011;3283;52.330;9.772;2023-03-14T15:30:04;46.27;;;38.47;;
6499;SDS011;3283;52.330;9.772;2023-03-14T15:32:30;55.13;;;39.53;;
6499;SDS011;3283;52.330;9.772;2023-03-14T15:34:56;58.73;;;41.50;;
6499;SDS011;3283;52.330;9.772;2023-03-14T15:37:22;76.37;;;49.10;;
6499;SDS011;3283;52.330;9.772;2023-03-14T15:39:48;31.30;;;22.13;;
6499;SDS011;3283;52.330;9.772;2023-03-14T15:42:13;62.20;;;35.20;;
6499;SDS011;3283;52.330;9.772;2023-03-14T15:44:38;91.93;;;54.93;;
6499;SDS011;3283;52.330;9.772;2023-03-14T15:51:53;92.53;;;56.70;;
6499;SDS011;3283;52.330;9.772;2023-03-14T15:54:18;88.07;;;54.30;;
6499;SDS011;3283;52.330;9.772;2023-03-14T15:56:44;71.80;;;49.57;;
6499;SDS011;3283;52.330;9.772;2023-03-14T15:59:09;81.33;;;52.00;;
6499;SDS011;3283;52.330;9.772;2023-03-14T16:01:34;82.70;;;56.03;;
6499;SDS011;3283;52.330;9.772;2023-03-14T16:04:00;87.10;;;57.10;;
6499;SDS011;3283;52.330;9.772;2023-03-14T16:06:27;62.97;;;49.97;;
6499;SDS011;3283;52.330;9.772;2023-03-14T16:08:52;75.03;;;53.50;;
6499;SDS011;3283;52.330;9.772;2023-03-14T16:11:17;68.90;;;46.77;;
6499;SDS011;3283;52.330;9.772;2023-03-14T16:13:43;61.00;;;45.70;;
6499;SDS011;3283;52.330;9.772;2023-03-14T16:29:11;74.93;;;53.27;;
6499;SDS011;3283;52.330;9.772;2023-03-14T16:31:36;72.77;;;52.10;;
6499;SDS011;3283;52.330;9.772;2023-03-14T16:34:07;58.30;;;42.93;;
6499;SDS011;3283;52.330;9.772;2023-03-14T16:36:33;59.00;;;43.57;;
6499;SDS011;3283;52.330;9.772;2023-03-14T16:38:59;58.00;;;45.77;;
6499;SDS011;3283;52.330;9.772;2023-03-14T16:41:24;57.83;;;44.73;;
6499;SDS011;3283;52.330;9.772;2023-03-14T16:43:53;92.30;;;55.87;;
6499;SDS011;3283;52.330;9.772;2023-03-14T16:46:20;60.70;;;48.10;;
6499;SDS011;3283;52.330;9.772;2023-03-14T16:48:46;50.67;;;39.37;;
6499;SDS011;3283;52.330;9.772;2023-03-14T16:51:11;57.60;;;46.50;;
6499;SDS011;3283;52.330;9.772;2023-03-14T16:53:38;63.03;;;47.17;;
6499;SDS011;3283;52.330;9.772;2023-03-14T16:56:03;63.10;;;47.40;;
6499;SDS011;3283;52.330;9.772;2023-03-14T16:58:29;63.50;;;48.57;;
